sensor_id;sensor_type;location;lat;lon;timestamp;P1;durP1;ratioP1;P2;durP2;ratioP2
71303;SDS011;59091;47.446;19.148;2022-07-09T00:00:00;9.27;;;2.10;;
71303;SDS011;59091;47.446;19.148;2022-07-09T00:02:25;2.33;;;2.13;;
71303;SDS011;59091;47.446;19.148;2022-07-09T00:04:51;4.60;;;2.25;;
71303;SDS011;59091;47.446;19.148;2022-07-09T00:07:16;4.78;;;2.10;;
71303;SDS011;59091;47.446;19.148;2022-07-09T00:09:42;2.50;;;2.08;;
71303;SDS011;59091;47.446;19.148;2022-07-09T00:12:07;3.35;;;2.25;;
71303;SDS011;59091;47.446;19.148;2022-07-09T00:14:33;4.90;;;1.98;;
71303;SDS011;59091;47.446;19.148;2022-07-09T00:16:59;6.00;;;2.22;;
71303;SDS011;59091;47.446;19.148;2022-07-09T00:19:24;5.30;;;2.22;;
71303;SDS011;59091;47.446;19.148;2022-07-09T00:21:50;4.78;;;2.03;;
71303;SDS011;59091;47.446;19.148;2022-07-09T00:24:15;3.10;;;2.03;;
71303;SDS011;59091;47.446;19.148;2022-07-09T00:26:41;2.72;;;2.00;;
71303;SDS011;59091;47.446;19.148;2022-07-09T00:29:06;5.20;;;2.17;;
71303;SDS011;59091;47.446;19.148;2022-07-09T00:31:31;3.95;;;2.13;;
71303;SDS011;59091;47.446;19.148;2022-07-09T00:33:57;4.20;;;1.80;;
71303;SDS011;59091;47.446;19.148;2022-07-09T00:36:22;7.13;;;2.17;;
71303;SDS011;59091;47.446;19.148;2022-07-09T00:38:47;4.28;;;2.22;;
71303;SDS011;59091;47.446;19.148;2022-07-09T00:41:13;3.10;;;2.22;;
71303;SDS011;59091;47.446;19.148;2022-07-09T00:43:45;4.70;;;2.20;;
71303;SDS011;59091;47.446;19.148;2022-07-09T00:46:12;2.25;;;2.00;;
71303;SDS011;59091;47.446;19.148;2022-07-09T00:48:37;2.63;;;2.10;;
71303;SDS011;59091;47.446;19.148;2022-07-09T00:51:02;4.10;;;2.20;;
71303;SDS011;59091;47.446;19.148;2022-07-09T00:53:28;4.07;;;2.15;;
71303;SDS011;59091;47.446;19.148;2022-07-09T00:55:53;5.88;;;2.20;;
71303;SDS011;59091;47.446;19.148;2022-07-09T00:58:19;5.57;;;2.15;;
71303;SDS011;59091;47.446;19.148;2022-07-09T01:00:46;5.38;;;2.42;;
71303;SDS011;59091;47.446;19.148;2022-07-09T01:03:11;3.15;;;2.13;;
71303;SDS011;59091;47.446;19.148;2022-07-09T01:05:37;3.00;;;1.90;;
71303;SDS011;59091;47.446;19.148;2022-07-09T01:08:03;3.45;;;1.90;;
71303;SDS011;59091;47.446;19.148;2022-07-09T01:10:30;3.47;;;2.08;;
71303;SDS011;59091;47.446;19.148;2022-07-09T01:12:56;7.80;;;2.00;;
71303;SDS011;59091;47.446;19.148;2022-07-09T01:15:22;3.35;;;1.83;;
71303;SDS011;59091;47.446;19.148;2022-07-09T01:17:47;5.72;;;2.00;;
71303;SDS011;59091;47.446;19.148;2022-07-09T01:20:13;3.38;;;2.10;;
71303;SDS011;59091;47.446;19.148;2022-07-09T01:22:38;5.72;;;2.15;;
71303;SDS011;59091;47.446;19.148;2022-07-09T01:25:05;2.70;;;2.22;;
71303;SDS011;59091;47.446;19.148;2022-07-09T01:27:34;3.45;;;2.10;;
71303;SDS011;59091;47.446;19.148;2022-07-09T01:30:02;3.45;;;2.10;;
71303;SDS011;59091;47.446;19.148;2022-07-09T01:32:28;2.85;;;2.40;;
71303;SDS011;59091;47.446;19.148;2022-07-09T01:34:54;4.90;;;2.40;;
71303;SDS011;59091;47.446;19.148;2022-07-09T01:37:19;2.38;;;1.95;;
71303;SDS011;59091;47.446;19.148;2022-07-09T01:39:45;3.08;;;2.10;;
71303;SDS011;59091;47.446;19.148;2022-07-09T01:42:17;2.78;;;2.00;;
71303;SDS011;59091;47.446;19.148;2022-07-09T01:44:46;4.28;;;2.03;;
71303;SDS011;59091;47.446;19.148;2022-07-09T01:47:13;5.63;;;2.35;;
71303;SDS011;59091;47.446;19.148;2022-07-09T01:49:40;3.10;;;1.80;;
71303;SDS011;59091;47.446;19.148;2022-07-09T01:52:05;6.35;;;2.10;;
71303;SDS011;59091;47.446;19.148;2022-07-09T01:54:31;5.15;;;1.90;;
71303;SDS011;59091;47.446;19.148;2022-07-09T01:56:56;3.80;;;2.20;;
71303;SDS011;59091;47.446;19.148;2022-07-09T01:59:22;4.90;;;2.45;;
71303;SDS011;59091;47.446;19.148;2022-07-09T02:01:47;10.38;;;2.35;;
71303;SDS011;59091;47.446;19.148;2022-07-09T02:04:13;12.75;;;2.30;;
71303;SDS011;59091;47.446;19.148;2022-07-09T02:06:38;6.03;;;2.30;;
71303;SDS011;59091;47.446;19.148;2022-07-09T02:09:04;4.13;;;2.20;;
71303;SDS011;59091;47.446;19.148;2022-07-09T02:11:29;4.90;;;3.20;;
71303;SDS011;59091;47.446;19.148;2022-07-09T02:13:54;5.75;;;2.10;;
71303;SDS011;59091;47.446;19.148;2022-07-09T02:16:20;10.43;;;2.10;;
71303;SDS011;59091;47.446;19.148;2022-07-09T02:18:45;10.75;;;2.75;;
71303;SDS011;59091;47.446;19.148;2022-07-09T02:21:11;9.52;;;2.20;;
71303;SDS011;59091;47.446;19.148;2022-07-09T02:23:36;7.82;;;2.00;;
71303;SDS011;59091;47.446;19.148;2022-07-09T02:26:02;6.72;;;2.25;;
71303;SDS011;59091;47.446;19.148;2022-07-09T02:28:27;10.77;;;2.72;;
71303;SDS011;59091;47.446;19.148;2022-07-09T02:30:53;6.35;;;2.22;;
71303;SDS011;59091;47.446;19.148;2022-07-09T02:33:19;13.23;;;2.50;;
71303;SDS011;59091;47.446;19.148;2022-07-09T02:35:45;5.20;;;2.10;;
71303;SDS011;59091;47.446;19.148;2022-07-09T02:38:10;5.70;;;2.10;;
71303;SDS011;59091;47.446;19.148;2022-07-09T02:40:36;6.05;;;2.05;;
71303;SDS011;59091;47.446;19.148;2022-07-09T02:43:01;2.80;;;1.90;;
71303;SDS011;59091;47.446;19.148;2022-07-09T02:45:27;4.78;;;2.45;;
71303;SDS011;59091;47.446;19.148;2022-07-09T02:47:52;4.90;;;1.98;;
71303;SDS011;59091;47.446;19.148;2022-07-09T02:50:18;5.00;;;1.90;;
71303;SDS011;59091;47.446;19.148;2022-07-09T02:52:43;2.53;;;2.10;;
71303;SDS011;59091;47.446;19.148;2022-07-09T02:55:08;3.60;;;2.25;;
71303;SDS011;59091;47.446;19.148;2022-07-09T02:57:34;5.82;;;2.22;;
71303;SDS011;59091;47.446;19.148;2022-07-09T03:00:00;3.47;;;2.60;;
71303;SDS011;59091;47.446;19.148;2022-07-09T03:02:25;6.35;;;2.10;;
71303;SDS011;59091;47.446;19.148;2022-07-09T03:04:51;3.42;;;1.88;;
71303;SDS011;59091;47.446;19.148;2022-07-09T03:07:16;8.40;;;2.00;;
71303;SDS011;59091;47.446;19.148;2022-07-09T03:09:42;5.47;;;2.08;;
71303;SDS011;59091;47.446;19.148;2022-07-09T03:12:07;4.47;;;2.10;;
71303;SDS011;59091;47.446;19.148;2022-07-09T03:14:33;3.35;;;2.03;;
71303;SDS011;59091;47.446;19.148;2022-07-09T03:16:58;4.05;;;1.83;;
71303;SDS011;59091;47.446;19.148;2022-07-09T03:19:24;6.38;;;2.80;;
71303;SDS011;59091;47.446;19.148;2022-07-09T03:21:49;6.55;;;2.30;;
71303;SDS011;59091;47.446;19.148;2022-07-09T03:24:15;4.15;;;1.95;;
71303;SDS011;59091;47.446;19.148;2022-07-09T03:26:40;14.55;;;2.30;;
71303;SDS011;59091;47.446;19.148;2022-07-09T03:29:05;3.25;;;1.75;;
71303;SDS011;59091;47.446;19.148;2022-07-09T03:31:32;4.03;;;2.40;;
71303;SDS011;59091;47.446;19.148;2022-07-09T03:33:57;4.95;;;2.25;;
71303;SDS011;59091;47.446;19.148;2022-07-09T03:36:23;6.57;;;2.00;;
71303;SDS011;59091;47.446;19.148;2022-07-09T03:38:48;3.38;;;2.10;;
71303;SDS011;59091;47.446;19.148;2022-07-09T03:41:14;2.95;;;1.95;;
71303;SDS011;59091;47.446;19.148;2022-07-09T03:43:39;6.57;;;2.40;;
71303;SDS011;59091;47.446;19.148;2022-07-09T03:46:04;4.75;;;2.10;;
71303;SDS011;59091;47.446;19.148;2022-07-09T03:48:30;4.68;;;2.22;;
71303;SDS011;59091;47.446;19.148;2022-07-09T03:50:55;3.08;;;2.10;;
71303;SDS011;59091;47.446;19.148;2022-07-09T03:53:21;5.55;;;2.10;;
71303;SDS011;59091;47.446;19.148;2022-07-09T03:55:47;15.98;;;2.30;;
71303;SDS011;59091;47.446;19.148;2022-07-09T03:58:12;4.50;;;2.10;;
71303;SDS011;59091;47.446;19.148;2022-07-09T04:00:38;5.63;;;2.00;;
71303;SDS011;59091;47.446;19.148;2022-07-09T04:03:03;6.63;;;2.42;;
71303;SDS011;59091;47.446;19.148;2022-07-09T04:05:28;3.83;;;2.03;;
71303;SDS011;59091;47.446;19.148;2022-07-09T04:07:54;3.88;;;2.10;;
71303;SDS011;59091;47.446;19.148;2022-07-09T04:10:19;6.70;;;2.83;;
71303;SDS011;59091;47.446;19.148;2022-07-09T04:12:46;4.28;;;2.38;;
71303;SDS011;59091;47.446;19.148;2022-07-09T04:15:11;4.25;;;2.30;;
71303;SDS011;59091;47.446;19.148;2022-07-09T04:17:36;4.03;;;2.20;;
71303;SDS011;59091;47.446;19.148;2022-07-09T04:20:02;5.30;;;2.85;;
71303;SDS011;59091;47.446;19.148;2022-07-09T04:22:28;7.10;;;2.60;;
71303;SDS011;59091;47.446;19.148;2022-07-09T04:24:53;6.22;;;2.15;;
71303;SDS011;59091;47.446;19.148;2022-07-09T04:27:18;4.57;;;2.55;;
71303;SDS011;59091;47.446;19.148;2022-07-09T04:29:44;3.25;;;2.10;;
71303;SDS011;59091;47.446;19.148;2022-07-09T04:32:09;7.70;;;3.33;;
71303;SDS011;59091;47.446;19.148;2022-07-09T04:34:35;4.90;;;2.50;;
71303;SDS011;59091;47.446;19.148;2022-07-09T04:37:00;3.67;;;2.30;;
71303;SDS011;59091;47.446;19.148;2022-07-09T04:39:26;6.75;;;2.00;;
71303;SDS011;59091;47.446;19.148;2022-07-09T04:41:52;4.07;;;2.65;;
71303;SDS011;59091;47.446;19.148;2022-07-09T04:44:17;9.77;;;2.50;;
71303;SDS011;59091;47.446;19.148;2022-07-09T04:46:43;6.05;;;2.35;;
71303;SDS011;59091;47.446;19.148;2022-07-09T04:49:09;5.28;;;2.22;;
71303;SDS011;59091;47.446;19.148;2022-07-09T04:51:35;9.32;;;2.33;;
71303;SDS011;59091;47.446;19.148;2022-07-09T04:54:00;3.05;;;2.15;;
71303;SDS011;59091;47.446;19.148;2022-07-09T04:56:25;4.47;;;2.13;;
71303;SDS011;59091;47.446;19.148;2022-07-09T04:58:51;3.33;;;2.33;;
71303;SDS011;59091;47.446;19.148;2022-07-09T05:01:20;7.13;;;2.33;;
71303;SDS011;59091;47.446;19.148;2022-07-09T05:03:46;3.65;;;2.30;;
71303;SDS011;59091;47.446;19.148;2022-07-09T05:06:13;4.93;;;2.30;;
71303;SDS011;59091;47.446;19.148;2022-07-09T05:08:39;3.50;;;2.40;;
71303;SDS011;59091;47.446;19.148;2022-07-09T05:11:04;8.27;;;2.60;;
71303;SDS011;59091;47.446;19.148;2022-07-09T05:13:30;7.82;;;2.97;;
71303;SDS011;59091;47.446;19.148;2022-07-09T05:15:55;6.68;;;2.40;;
71303;SDS011;59091;47.446;19.148;2022-07-09T05:18:21;8.85;;;2.85;;
71303;SDS011;59091;47.446;19.148;2022-07-09T05:20:46;3.13;;;2.45;;
71303;SDS011;59091;47.446;19.148;2022-07-09T05:23:11;5.95;;;2.78;;
71303;SDS011;59091;47.446;19.148;2022-07-09T05:25:37;3.33;;;2.35;;
71303;SDS011;59091;47.446;19.148;2022-07-09T05:28:02;3.63;;;2.50;;
71303;SDS011;59091;47.446;19.148;2022-07-09T05:30:28;5.35;;;2.53;;
71303;SDS011;59091;47.446;19.148;2022-07-09T05:32:53;8.85;;;2.72;;
71303;SDS011;59091;47.446;19.148;2022-07-09T05:35:19;3.75;;;2.42;;
71303;SDS011;59091;47.446;19.148;2022-07-09T05:37:44;4.55;;;2.53;;
71303;SDS011;59091;47.446;19.148;2022-07-09T05:40:10;6.82;;;2.40;;
71303;SDS011;59091;47.446;19.148;2022-07-09T05:42:37;4.68;;;2.65;;
71303;SDS011;59091;47.446;19.148;2022-07-09T05:45:02;3.85;;;2.33;;
71303;SDS011;59091;47.446;19.148;2022-07-09T05:47:29;4.80;;;2.53;;
71303;SDS011;59091;47.446;19.148;2022-07-09T05:49:54;6.60;;;2.60;;
71303;SDS011;59091;47.446;19.148;2022-07-09T05:52:19;4.65;;;2.33;;
71303;SDS011;59091;47.446;19.148;2022-07-09T05:54:45;7.70;;;2.40;;
71303;SDS011;59091;47.446;19.148;2022-07-09T05:57:10;4.53;;;2.25;;
71303;SDS011;59091;47.446;19.148;2022-07-09T05:59:35;6.85;;;2.35;;
71303;SDS011;59091;47.446;19.148;2022-07-09T06:02:01;3.65;;;2.20;;
71303;SDS011;59091;47.446;19.148;2022-07-09T06:04:30;8.98;;;2.13;;
71303;SDS011;59091;47.446;19.148;2022-07-09T06:06:55;4.68;;;1.95;;
71303;SDS011;59091;47.446;19.148;2022-07-09T06:09:21;4.53;;;1.92;;
71303;SDS011;59091;47.446;19.148;2022-07-09T06:11:46;4.20;;;2.30;;
71303;SDS011;59091;47.446;19.148;2022-07-09T06:14:11;4.80;;;2.30;;
71303;SDS011;59091;47.446;19.148;2022-07-09T06:16:37;4.68;;;2.35;;
71303;SDS011;59091;47.446;19.148;2022-07-09T06:19:02;4.68;;;1.80;;
71303;SDS011;59091;47.446;19.148;2022-07-09T06:21:28;3.55;;;2.28;;
71303;SDS011;59091;47.446;19.148;2022-07-09T06:23:53;6.07;;;2.05;;
71303;SDS011;59091;47.446;19.148;2022-07-09T06:26:19;3.33;;;1.90;;
71303;SDS011;59091;47.446;19.148;2022-07-09T06:28:44;10.13;;;3.00;;
71303;SDS011;59091;47.446;19.148;2022-07-09T06:31:11;5.50;;;2.05;;
71303;SDS011;59091;47.446;19.148;2022-07-09T06:33:36;5.65;;;2.67;;
71303;SDS011;59091;47.446;19.148;2022-07-09T06:36:02;10.20;;;2.30;;
71303;SDS011;59091;47.446;19.148;2022-07-09T06:38:28;4.90;;;2.40;;
71303;SDS011;59091;47.446;19.148;2022-07-09T06:40:54;5.57;;;2.38;;
71303;SDS011;59091;47.446;19.148;2022-07-09T06:43:21;4.45;;;2.00;;
71303;SDS011;59091;47.446;19.148;2022-07-09T06:45:46;5.55;;;1.90;;
71303;SDS011;59091;47.446;19.148;2022-07-09T06:48:12;3.95;;;2.10;;
71303;SDS011;59091;47.446;19.148;2022-07-09T06:50:38;4.90;;;2.40;;
71303;SDS011;59091;47.446;19.148;2022-07-09T06:53:03;3.88;;;2.25;;
71303;SDS011;59091;47.446;19.148;2022-07-09T06:55:29;5.53;;;2.10;;
71303;SDS011;59091;47.446;19.148;2022-07-09T06:57:55;4.78;;;2.10;;
71303;SDS011;59091;47.446;19.148;2022-07-09T07:00:22;5.57;;;2.28;;
71303;SDS011;59091;47.446;19.148;2022-07-09T07:02:49;6.00;;;2.10;;
71303;SDS011;59091;47.446;19.148;2022-07-09T07:05:14;4.85;;;1.92;;
71303;SDS011;59091;47.446;19.148;2022-07-09T07:07:40;6.85;;;2.20;;
71303;SDS011;59091;47.446;19.148;2022-07-09T07:10:05;5.05;;;2.00;;
71303;SDS011;59091;47.446;19.148;2022-07-09T07:12:31;7.13;;;2.35;;
71303;SDS011;59091;47.446;19.148;2022-07-09T07:14:56;3.58;;;2.00;;
71303;SDS011;59091;47.446;19.148;2022-07-09T07:17:22;5.25;;;2.15;;
71303;SDS011;59091;47.446;19.148;2022-07-09T07:19:47;3.83;;;1.88;;
71303;SDS011;59091;47.446;19.148;2022-07-09T07:22:13;5.38;;;1.88;;
71303;SDS011;59091;47.446;19.148;2022-07-09T07:24:38;5.63;;;2.10;;
71303;SDS011;59091;47.446;19.148;2022-07-09T07:27:04;3.63;;;2.20;;
71303;SDS011;59091;47.446;19.148;2022-07-09T07:29:29;4.13;;;1.95;;
71303;SDS011;59091;47.446;19.148;2022-07-09T07:31:55;3.22;;;1.85;;
71303;SDS011;59091;47.446;19.148;2022-07-09T07:34:22;2.92;;;1.88;;
71303;SDS011;59091;47.446;19.148;2022-07-09T07:36:49;4.40;;;2.05;;
71303;SDS011;59091;47.446;19.148;2022-07-09T07:39:16;4.00;;;2.00;;
71303;SDS011;59091;47.446;19.148;2022-07-09T07:41:41;3.70;;;2.20;;
71303;SDS011;59091;47.446;19.148;2022-07-09T07:44:07;7.78;;;2.10;;
71303;SDS011;59091;47.446;19.148;2022-07-09T07:46:32;4.32;;;1.88;;
71303;SDS011;59091;47.446;19.148;2022-07-09T07:48:58;8.07;;;2.10;;
71303;SDS011;59091;47.446;19.148;2022-07-09T07:51:24;3.95;;;2.00;;
71303;SDS011;59091;47.446;19.148;2022-07-09T07:53:50;4.32;;;2.08;;
71303;SDS011;59091;47.446;19.148;2022-07-09T07:56:15;3.63;;;2.20;;
71303;SDS011;59091;47.446;19.148;2022-07-09T07:58:41;5.05;;;1.77;;
71303;SDS011;59091;47.446;19.148;2022-07-09T08:01:06;3.50;;;2.08;;
71303;SDS011;59091;47.446;19.148;2022-07-09T08:03:31;5.03;;;1.80;;
71303;SDS011;59091;47.446;19.148;2022-07-09T08:05:57;2.40;;;1.70;;
71303;SDS011;59091;47.446;19.148;2022-07-09T08:08:22;5.03;;;1.85;;
71303;SDS011;59091;47.446;19.148;2022-07-09T08:10:48;4.47;;;1.90;;
71303;SDS011;59091;47.446;19.148;2022-07-09T08:13:14;2.85;;;1.90;;
71303;SDS011;59091;47.446;19.148;2022-07-09T08:15:40;4.15;;;1.80;;
71303;SDS011;59091;47.446;19.148;2022-07-09T08:18:06;6.22;;;2.55;;
71303;SDS011;59091;47.446;19.148;2022-07-09T08:20:33;5.70;;;1.90;;
71303;SDS011;59091;47.446;19.148;2022-07-09T08:23:01;4.53;;;1.90;;
71303;SDS011;59091;47.446;19.148;2022-07-09T08:25:27;5.40;;;1.90;;
71303;SDS011;59091;47.446;19.148;2022-07-09T08:27:52;2.95;;;1.80;;
71303;SDS011;59091;47.446;19.148;2022-07-09T08:30:18;3.72;;;1.88;;
71303;SDS011;59091;47.446;19.148;2022-07-09T08:32:43;4.30;;;1.90;;
71303;SDS011;59091;47.446;19.148;2022-07-09T08:35:08;7.32;;;2.03;;
71303;SDS011;59091;47.446;19.148;2022-07-09T08:37:34;3.38;;;2.00;;
71303;SDS011;59091;47.446;19.148;2022-07-09T08:39:59;3.97;;;1.65;;
71303;SDS011;59091;47.446;19.148;2022-07-09T08:42:25;3.83;;;1.85;;
71303;SDS011;59091;47.446;19.148;2022-07-09T08:44:51;2.65;;;1.80;;
71303;SDS011;59091;47.446;19.148;2022-07-09T08:47:17;3.33;;;1.80;;
71303;SDS011;59091;47.446;19.148;2022-07-09T08:49:43;4.45;;;1.98;;
71303;SDS011;59091;47.446;19.148;2022-07-09T08:52:12;4.50;;;1.80;;
71303;SDS011;59091;47.446;19.148;2022-07-09T08:54:38;2.65;;;1.75;;
71303;SDS011;59091;47.446;19.148;2022-07-09T08:57:07;2.70;;;1.60;;
71303;SDS011;59091;47.446;19.148;2022-07-09T08:59:32;2.70;;;1.75;;
71303;SDS011;59091;47.446;19.148;2022-07-09T09:02:03;3.92;;;2.42;;
71303;SDS011;59091;47.446;19.148;2022-07-09T09:04:29;2.08;;;1.63;;
71303;SDS011;59091;47.446;19.148;2022-07-09T09:06:55;4.50;;;2.05;;
71303;SDS011;59091;47.446;19.148;2022-07-09T09:09:20;4.85;;;1.90;;
71303;SDS011;59091;47.446;19.148;2022-07-09T09:11:47;3.22;;;1.92;;
71303;SDS011;59091;47.446;19.148;2022-07-09T09:14:21;3.63;;;1.85;;
71303;SDS011;59091;47.446;19.148;2022-07-09T09:16:47;4.40;;;2.10;;
71303;SDS011;59091;47.446;19.148;2022-07-09T09:19:13;3.53;;;1.90;;
71303;SDS011;59091;47.446;19.148;2022-07-09T09:21:38;3.80;;;1.88;;
71303;SDS011;59091;47.446;19.148;2022-07-09T09:24:04;6.13;;;2.15;;
71303;SDS011;59091;47.446;19.148;2022-07-09T09:26:30;6.82;;;1.85;;
71303;SDS011;59091;47.446;19.148;2022-07-09T09:28:56;3.03;;;1.95;;
71303;SDS011;59091;47.446;19.148;2022-07-09T09:31:27;6.80;;;2.08;;
71303;SDS011;59091;47.446;19.148;2022-07-09T09:33:57;5.25;;;2.00;;
71303;SDS011;59091;47.446;19.148;2022-07-09T09:36:33;2.25;;;2.05;;
71303;SDS011;59091;47.446;19.148;2022-07-09T09:39:16;2.22;;;1.67;;
71303;SDS011;59091;47.446;19.148;2022-07-09T09:41:49;2.60;;;2.00;;
71303;SDS011;59091;47.446;19.148;2022-07-09T09:44:52;4.05;;;1.80;;
71303;SDS011;59091;47.446;19.148;2022-07-09T09:47:14;2.75;;;1.70;;
71303;SDS011;59091;47.446;19.148;2022-07-09T09:49:41;6.72;;;2.13;;
71303;SDS011;59091;47.446;19.148;2022-07-09T09:52:07;1.70;;;1.60;;
71303;SDS011;59091;47.446;19.148;2022-07-09T09:54:35;3.05;;;1.70;;
71303;SDS011;59091;47.446;19.148;2022-07-09T09:57:05;4.05;;;1.80;;
71303;SDS011;59091;47.446;19.148;2022-07-09T09:59:38;2.78;;;1.70;;
71303;SDS011;59091;47.446;19.148;2022-07-09T10:02:05;5.45;;;1.90;;
71303;SDS011;59091;47.446;19.148;2022-07-09T10:04:31;8.68;;;2.08;;
71303;SDS011;59091;47.446;19.148;2022-07-09T10:06:57;4.47;;;1.67;;
71303;SDS011;59091;47.446;19.148;2022-07-09T10:09:23;3.42;;;1.63;;
71303;SDS011;59091;47.446;19.148;2022-07-09T10:11:48;5.43;;;1.85;;
71303;SDS011;59091;47.446;19.148;2022-07-09T10:14:17;6.00;;;1.70;;
71303;SDS011;59091;47.446;19.148;2022-07-09T10:16:55;4.10;;;1.85;;
71303;SDS011;59091;47.446;19.148;2022-07-09T10:19:24;4.45;;;1.90;;
71303;SDS011;59091;47.446;19.148;2022-07-09T10:21:54;4.30;;;1.60;;
71303;SDS011;59091;47.446;19.148;2022-07-09T10:24:24;3.58;;;1.58;;
71303;SDS011;59091;47.446;19.148;2022-07-09T10:27:10;2.45;;;1.60;;
71303;SDS011;59091;47.446;19.148;2022-07-09T10:29:37;3.90;;;1.70;;
71303;SDS011;59091;47.446;19.148;2022-07-09T10:35:02;4.43;;;1.80;;
71303;SDS011;59091;47.446;19.148;2022-07-09T10:37:32;6.07;;;1.50;;
71303;SDS011;59091;47.446;19.148;2022-07-09T10:40:14;2.70;;;1.63;;
71303;SDS011;59091;47.446;19.148;2022-07-09T10:42:41;1.63;;;1.50;;
71303;SDS011;59091;47.446;19.148;2022-07-09T10:45:42;2.05;;;1.70;;
71303;SDS011;59091;47.446;19.148;2022-07-09T10:48:03;1.92;;;1.55;;
71303;SDS011;59091;47.446;19.148;2022-07-09T10:50:30;1.55;;;1.33;;
71303;SDS011;59091;47.446;19.148;2022-07-09T10:52:57;5.07;;;1.60;;
71303;SDS011;59091;47.446;19.148;2022-07-09T10:55:25;4.10;;;1.67;;
71303;SDS011;59091;47.446;19.148;2022-07-09T10:57:52;1.60;;;1.50;;
71303;SDS011;59091;47.446;19.148;2022-07-09T11:00:19;8.50;;;1.85;;
71303;SDS011;59091;47.446;19.148;2022-07-09T11:02:52;6.47;;;1.80;;
71303;SDS011;59091;47.446;19.148;2022-07-09T11:05:21;13.13;;;1.90;;
71303;SDS011;59091;47.446;19.148;2022-07-09T11:07:57;3.92;;;1.63;;
71303;SDS011;59091;47.446;19.148;2022-07-09T11:10:26;2.38;;;1.75;;
71303;SDS011;59091;47.446;19.148;2022-07-09T11:12:53;3.55;;;1.38;;
71303;SDS011;59091;47.446;19.148;2022-07-09T11:15:20;5.32;;;1.65;;
71303;SDS011;59091;47.446;19.148;2022-07-09T11:20:25;4.10;;;1.70;;
71303;SDS011;59091;47.446;19.148;2022-07-09T11:22:51;3.83;;;1.40;;
71303;SDS011;59091;47.446;19.148;2022-07-09T11:25:17;2.85;;;1.40;;
71303;SDS011;59091;47.446;19.148;2022-07-09T11:27:43;3.67;;;1.50;;
71303;SDS011;59091;47.446;19.148;2022-07-09T11:30:12;2.30;;;1.55;;
71303;SDS011;59091;47.446;19.148;2022-07-09T11:32:39;5.03;;;1.77;;
71303;SDS011;59091;47.446;19.148;2022-07-09T11:35:06;4.00;;;1.23;;
71303;SDS011;59091;47.446;19.148;2022-07-09T11:37:31;3.58;;;1.50;;
71303;SDS011;59091;47.446;19.148;2022-07-09T11:39:57;1.88;;;1.30;;
71303;SDS011;59091;47.446;19.148;2022-07-09T11:42:22;5.97;;;1.50;;
71303;SDS011;59091;47.446;19.148;2022-07-09T11:45:01;3.80;;;1.70;;
71303;SDS011;59091;47.446;19.148;2022-07-09T11:47:36;2.85;;;1.60;;
71303;SDS011;59091;47.446;19.148;2022-07-09T11:50:11;2.00;;;1.45;;
71303;SDS011;59091;47.446;19.148;2022-07-09T11:52:44;3.90;;;1.58;;
71303;SDS011;59091;47.446;19.148;2022-07-09T11:55:15;1.83;;;1.23;;
71303;SDS011;59091;47.446;19.148;2022-07-09T11:57:50;4.47;;;1.30;;
71303;SDS011;59091;47.446;19.148;2022-07-09T12:00:21;4.88;;;1.75;;
71303;SDS011;59091;47.446;19.148;2022-07-09T12:02:48;8.38;;;1.50;;
71303;SDS011;59091;47.446;19.148;2022-07-09T12:05:23;3.88;;;1.30;;
71303;SDS011;59091;47.446;19.148;2022-07-09T12:07:50;4.80;;;1.48;;
71303;SDS011;59091;47.446;19.148;2022-07-09T12:10:16;5.70;;;1.48;;
71303;SDS011;59091;47.446;19.148;2022-07-09T12:12:50;2.78;;;1.50;;
71303;SDS011;59091;47.446;19.148;2022-07-09T12:15:16;1.88;;;1.33;;
71303;SDS011;59091;47.446;19.148;2022-07-09T12:17:42;7.25;;;1.50;;
71303;SDS011;59091;47.446;19.148;2022-07-09T12:20:07;6.72;;;1.40;;
71303;SDS011;59091;47.446;19.148;2022-07-09T12:22:34;2.10;;;1.40;;
71303;SDS011;59091;47.446;19.148;2022-07-09T12:25:00;2.58;;;1.45;;
71303;SDS011;59091;47.446;19.148;2022-07-09T12:27:26;2.97;;;1.50;;
71303;SDS011;59091;47.446;19.148;2022-07-09T12:29:51;1.63;;;1.17;;
71303;SDS011;59091;47.446;19.148;2022-07-09T12:32:17;2.75;;;1.10;;
71303;SDS011;59091;47.446;19.148;2022-07-09T12:34:42;5.18;;;1.35;;
71303;SDS011;59091;47.446;19.148;2022-07-09T12:37:08;1.70;;;1.17;;
71303;SDS011;59091;47.446;19.148;2022-07-09T12:39:33;2.10;;;1.40;;
71303;SDS011;59091;47.446;19.148;2022-07-09T12:41:59;2.47;;;1.40;;
71303;SDS011;59091;47.446;19.148;2022-07-09T12:44:24;5.07;;;1.75;;
71303;SDS011;59091;47.446;19.148;2022-07-09T12:46:50;2.88;;;1.25;;
71303;SDS011;59091;47.446;19.148;2022-07-09T12:49:16;2.05;;;1.40;;
71303;SDS011;59091;47.446;19.148;2022-07-09T12:51:42;3.15;;;1.23;;
71303;SDS011;59091;47.446;19.148;2022-07-09T12:54:07;3.00;;;1.40;;
71303;SDS011;59091;47.446;19.148;2022-07-09T12:56:33;2.75;;;1.23;;
71303;SDS011;59091;47.446;19.148;2022-07-09T12:58:58;3.65;;;1.50;;
71303;SDS011;59091;47.446;19.148;2022-07-09T13:01:23;5.63;;;1.23;;
71303;SDS011;59091;47.446;19.148;2022-07-09T13:03:49;2.20;;;1.42;;
71303;SDS011;59091;47.446;19.148;2022-07-09T13:06:15;2.40;;;1.70;;
71303;SDS011;59091;47.446;19.148;2022-07-09T13:08:59;8.23;;;1.48;;
71303;SDS011;59091;47.446;19.148;2022-07-09T13:11:25;3.58;;;1.00;;
71303;SDS011;59091;47.446;19.148;2022-07-09T13:13:51;2.47;;;1.23;;
71303;SDS011;59091;47.446;19.148;2022-07-09T13:16:16;6.63;;;1.30;;
71303;SDS011;59091;47.446;19.148;2022-07-09T13:18:42;4.15;;;1.20;;
71303;SDS011;59091;47.446;19.148;2022-07-09T13:21:07;3.78;;;1.23;;
71303;SDS011;59091;47.446;19.148;2022-07-09T13:23:34;1.48;;;1.00;;
71303;SDS011;59091;47.446;19.148;2022-07-09T13:25:59;1.92;;;1.02;;
71303;SDS011;59091;47.446;19.148;2022-07-09T13:28:24;2.60;;;1.33;;
71303;SDS011;59091;47.446;19.148;2022-07-09T13:30:50;1.52;;;1.17;;
71303;SDS011;59091;47.446;19.148;2022-07-09T13:33:15;11.00;;;1.42;;
71303;SDS011;59091;47.446;19.148;2022-07-09T13:35:41;1.95;;;1.20;;
71303;SDS011;59091;47.446;19.148;2022-07-09T13:38:07;1.85;;;1.17;;
71303;SDS011;59091;47.446;19.148;2022-07-09T13:40:32;2.42;;;1.38;;
71303;SDS011;59091;47.446;19.148;2022-07-09T13:42:58;4.32;;;1.25;;
71303;SDS011;59091;47.446;19.148;2022-07-09T13:45:23;0.90;;;0.90;;
71303;SDS011;59091;47.446;19.148;2022-07-09T13:47:49;3.03;;;1.10;;
71303;SDS011;59091;47.446;19.148;2022-07-09T13:50:14;1.75;;;0.98;;
71303;SDS011;59091;47.446;19.148;2022-07-09T13:52:40;4.65;;;1.30;;
71303;SDS011;59091;47.446;19.148;2022-07-09T13:55:06;6.70;;;1.23;;
71303;SDS011;59091;47.446;19.148;2022-07-09T13:57:31;6.30;;;1.15;;
71303;SDS011;59091;47.446;19.148;2022-07-09T13:59:57;4.13;;;0.98;;
71303;SDS011;59091;47.446;19.148;2022-07-09T14:02:22;2.00;;;0.90;;
71303;SDS011;59091;47.446;19.148;2022-07-09T14:04:48;1.65;;;0.93;;
71303;SDS011;59091;47.446;19.148;2022-07-09T14:07:14;3.10;;;0.80;;
71303;SDS011;59091;47.446;19.148;2022-07-09T14:09:40;1.38;;;0.80;;
71303;SDS011;59091;47.446;19.148;2022-07-09T14:12:05;2.80;;;1.00;;
71303;SDS011;59091;47.446;19.148;2022-07-09T14:14:31;1.60;;;1.02;;
71303;SDS011;59091;47.446;19.148;2022-07-09T14:16:56;1.85;;;0.90;;
71303;SDS011;59091;47.446;19.148;2022-07-09T14:19:22;1.92;;;1.00;;
71303;SDS011;59091;47.446;19.148;2022-07-09T14:21:47;1.80;;;1.10;;
71303;SDS011;59091;47.446;19.148;2022-07-09T14:24:13;1.20;;;0.98;;
71303;SDS011;59091;47.446;19.148;2022-07-09T14:26:39;0.95;;;0.95;;
71303;SDS011;59091;47.446;19.148;2022-07-09T14:29:06;1.67;;;1.20;;
71303;SDS011;59091;47.446;19.148;2022-07-09T14:31:32;1.75;;;1.05;;
71303;SDS011;59091;47.446;19.148;2022-07-09T14:33:57;0.80;;;0.80;;